createdAt,value
2022-12-18T04:31:01.548Z,48.29
2022-12-18T04:33:03.987Z,48.07
2022-12-18T04:35:09.364Z,48.07
2022-12-18T04:37:12.166Z,48.28
2022-12-18T04:39:14.876Z,48.30
2022-12-18T04:41:17.298Z,48.28
2022-12-18T04:43:19.762Z,48.54
2022-12-18T04:45:22.192Z,48.25
2022-12-18T04:47:25.877Z,48.29
2022-12-18T04:49:28.230Z,48.34
2022-12-18T04:51:30.652Z,48.66
2022-12-18T04:53:32.994Z,48.41
2022-12-18T04:55:35.380Z,48.53
2022-12-18T04:57:37.780Z,48.34
2022-12-18T04:59:40.155Z,48.41
2022-12-18T05:01:42.690Z,48.63
2022-12-18T05:03:46.970Z,48.33
2022-12-18T05:05:51.211Z,48.54
2022-12-18T05:07:53.537Z,48.29
2022-12-18T05:09:55.897Z,48.60
2022-12-18T05:11:58.261Z,48.41
2022-12-18T05:14:00.624Z,48.29
2022-12-18T05:16:03.467Z,48.27
2022-12-18T05:18:05.916Z,48.39
2022-12-18T05:20:10.359Z,48.29
2022-12-18T05:22:13.452Z,48.51
2022-12-18T05:24:16.183Z,48.43
2022-12-18T05:26:19.750Z,48.26
2022-12-18T05:28:22.494Z,48.40
2022-12-18T05:30:24.841Z,48.34
2022-12-18T05:32:27.180Z,48.49
2022-12-18T05:34:29.510Z,48.45
2022-12-18T05:36:33.247Z,48.29
2022-12-18T05:38:36.482Z,48.45
2022-12-18T05:40:38.814Z,48.13
2022-12-18T05:42:41.233Z,48.01
2022-12-18T05:44:43.581Z,48.07
2022-12-18T05:46:45.999Z,48.06
2022-12-18T05:48:49.136Z,48.27
2022-12-18T05:50:52.327Z,47.94
2022-12-18T05:52:56.040Z,47.78
2022-12-18T05:54:59.848Z,48.27
2022-12-18T05:57:02.228Z,48.21
2022-12-18T05:59:04.587Z,48.20
2022-12-18T06:01:11.628Z,48.15
2022-12-18T06:03:15.347Z,48.02
2022-12-18T06:05:17.949Z,48.21
2022-12-18T06:07:20.291Z,48.22
2022-12-18T06:09:23.984Z,47.94
2022-12-18T06:11:27.695Z,47.95
2022-12-18T06:13:30.043Z,47.86
2022-12-18T06:15:32.437Z,48.18
2022-12-18T06:17:35.324Z,48.17
2022-12-18T06:19:37.721Z,48.08
2022-12-18T06:21:40.074Z,48.17
2022-12-18T06:23:43.023Z,47.93
2022-12-18T06:25:46.897Z,47.78
2022-12-18T06:27:49.260Z,47.72
2022-12-18T06:29:51.600Z,47.80
2022-12-18T06:31:54.151Z,47.83
2022-12-18T06:33:56.617Z,47.78
2022-12-18T06:36:02.118Z,48.03
2022-12-18T06:38:08.102Z,47.93
2022-12-18T06:40:11.067Z,47.85
2022-12-18T06:42:14.776Z,47.80
2022-12-18T06:44:17.153Z,47.67
2022-12-18T06:46:19.619Z,47.88
2022-12-18T06:48:22.177Z,47.57
2022-12-18T06:50:24.537Z,47.59
2022-12-18T06:52:26.892Z,47.64
2022-12-18T06:54:29.241Z,47.77
2022-12-18T06:56:31.901Z,47.73
2022-12-18T06:58:35.705Z,47.60
2022-12-18T07:00:38.129Z,47.81
2022-12-18T07:02:41.441Z,47.72
2022-12-18T07:04:43.889Z,47.54
2022-12-18T07:06:46.283Z,47.63
2022-12-18T07:08:49.038Z,47.54
2022-12-18T07:10:55.956Z,47.67
2022-12-18T07:12:58.758Z,47.81
2022-12-18T07:15:02.460Z,47.37
2022-12-18T07:17:04.867Z,47.32
2022-12-18T07:19:09.051Z,47.58
2022-12-18T07:21:12.529Z,47.55
2022-12-18T07:23:14.872Z,47.36
2022-12-18T07:25:17.336Z,47.27
2022-12-18T07:27:19.683Z,47.21
2022-12-18T07:29:22.314Z,47.28
2022-12-18T07:31:26.661Z,47.19
2022-12-18T07:33:29.063Z,47.25
2022-12-18T07:35:31.599Z,47.15
2022-12-18T07:37:33.968Z,47.18
2022-12-18T07:39:36.358Z,47.08
2022-12-18T07:41:41.306Z,47.28
2022-12-18T07:43:47.753Z,47.25
2022-12-18T07:45:51.096Z,47.44
2022-12-18T07:47:54.846Z,47.09
2022-12-18T07:49:57.190Z,47.17
2022-12-18T07:52:00.161Z,47.44
2022-12-18T07:54:02.522Z,47.33
2022-12-18T07:56:26.478Z,47.23
2022-12-18T07:58:28.255Z,47.19
2022-12-18T08:00:30.646Z,46.96
2022-12-18T08:02:33.464Z,47.01
2022-12-18T08:04:38.495Z,46.77
2022-12-18T08:06:46.170Z,46.93
2022-12-18T08:08:50.022Z,47.19
2022-12-18T08:10:52.786Z,47.03
2022-12-18T08:12:57.813Z,46.97
2022-12-18T08:15:02.550Z,47.10
2022-12-18T08:17:05.150Z,47.24
2022-12-18T08:19:07.504Z,47.42
2022-12-18T08:21:11.692Z,47.20
2022-12-18T08:23:14.050Z,47.09
2022-12-18T08:25:16.383Z,47.33
2022-12-18T08:27:29.232Z,47.25
2022-12-18T08:29:32.812Z,47.42
2022-12-18T08:31:48.495Z,47.48
2022-12-18T08:33:51.406Z,47.28
2022-12-18T08:35:53.782Z,47.12
2022-12-18T08:37:57.487Z,47.32
2022-12-18T08:39:59.869Z,47.35
2022-12-18T08:42:34.459Z,47.60
2022-12-18T08:44:39.531Z,47.40
2022-12-18T08:46:42.787Z,47.28
2022-12-18T08:48:45.711Z,47.29
2022-12-18T08:50:55.173Z,47.47
2022-12-18T08:52:59.035Z,47.50
2022-12-18T08:55:01.522Z,47.47
2022-12-18T08:57:03.857Z,47.48
2022-12-18T08:59:07.258Z,47.44
2022-12-18T09:01:10.873Z,47.72
2022-12-18T09:03:13.944Z,47.64
2022-12-18T09:05:16.485Z,47.40
2022-12-18T09:07:18.850Z,47.41
2022-12-18T09:09:22.539Z,47.35
2022-12-18T09:11:25.992Z,47.54
2022-12-18T09:13:28.418Z,47.67
2022-12-18T09:15:30.780Z,47.53
2022-12-18T09:17:33.116Z,47.19
2022-12-18T09:19:35.482Z,47.33
2022-12-18T09:21:41.224Z,47.13
2022-12-18T09:23:50.993Z,47.38
2022-12-18T09:26:00.168Z,47.07
2022-12-18T09:28:02.867Z,47.20
2022-12-18T09:30:05.696Z,47.14
2022-12-18T09:32:08.049Z,46.85
2022-12-18T09:34:10.440Z,47.25
2022-12-18T09:36:13.927Z,47.30
2022-12-18T09:38:18.793Z,47.08
2022-12-18T09:40:22.172Z,47.15
2022-12-18T09:42:25.950Z,47.14
2022-12-18T09:44:30.142Z,47.14
2022-12-18T09:46:34.867Z,47.10
2022-12-18T09:48:39.279Z,46.95
2022-12-18T09:50:42.348Z,47.03
2022-12-18T09:52:46.974Z,46.71
2022-12-18T09:54:51.916Z,46.76
2022-12-18T09:56:54.283Z,46.96
2022-12-18T09:59:00.088Z,47.02
2022-12-18T10:01:02.440Z,46.98
2022-12-18T10:03:10.736Z,46.74
2022-12-18T10:05:15.125Z,46.80
2022-12-18T10:07:21.440Z,46.92
2022-12-18T10:09:29.092Z,46.83
2022-12-18T10:11:36.507Z,46.82
2022-12-18T10:13:43.927Z,46.38
2022-12-18T10:15:54.194Z,46.46
2022-12-18T10:18:00.105Z,46.65
2022-12-18T10:20:04.194Z,46.63
2022-12-18T10:22:13.010Z,46.23
2022-12-18T10:24:19.843Z,46.20
2022-12-18T10:26:22.199Z,46.57
2022-12-18T10:28:25.420Z,46.17
2022-12-18T10:30:28.398Z,46.11
2022-12-18T10:32:32.421Z,46.47
2022-12-18T10:34:34.860Z,46.53
2022-12-18T10:36:37.524Z,46.04
2022-12-18T10:38:40.273Z,46.23
2022-12-18T10:40:50.451Z,45.96
2022-12-18T10:43:04.765Z,45.96
2022-12-18T10:45:11.024Z,46.16
2022-12-18T10:47:15.922Z,45.86
2022-12-18T10:49:24.244Z,46.09
2022-12-18T10:51:30.608Z,46.08
2022-12-18T10:53:36.244Z,45.92
2022-12-18T10:55:40.311Z,46.12
2022-12-18T10:57:42.756Z,45.82
2022-12-18T10:59:51.988Z,45.73
2022-12-18T11:01:56.030Z,45.88
2022-12-18T11:04:03.009Z,45.71
2022-12-18T11:06:08.689Z,45.79
2022-12-18T11:08:20.589Z,45.61
2022-12-18T11:10:24.126Z,45.85
2022-12-18T11:12:26.513Z,45.45
2022-12-18T11:14:30.024Z,45.59
2022-12-18T11:16:36.731Z,45.45
2022-12-18T11:18:39.531Z,45.87
2022-12-18T11:20:42.243Z,45.31
2022-12-18T11:22:56.155Z,45.49
2022-12-18T11:27:21.670Z,45.58
2022-12-18T11:29:25.589Z,45.42
2022-12-18T11:31:29.096Z,45.19
2022-12-18T11:33:31.585Z,45.59
2022-12-18T11:35:40.195Z,45.51
2022-12-18T11:37:43.663Z,45.61
2022-12-18T11:39:52.033Z,45.41
2022-12-18T11:42:19.284Z,45.44
2022-12-18T11:44:24.640Z,45.20
2022-12-18T11:46:32.918Z,45.55
2022-12-18T11:48:39.317Z,45.37
2022-12-18T11:50:46.659Z,45.50
2022-12-18T11:52:54.167Z,45.52
2022-12-18T11:55:02.088Z,45.22
2022-12-18T11:57:07.993Z,45.29
2022-12-18T11:59:11.924Z,45.50
2022-12-18T12:01:19.569Z,45.48
2022-12-18T12:03:27.800Z,45.17
2022-12-18T12:05:46.756Z,45.14
2022-12-18T12:07:53.808Z,45.44
2022-12-18T12:10:03.114Z,45.23
2022-12-18T12:12:15.235Z,45.17
2022-12-18T12:14:28.984Z,45.22
2022-12-18T12:16:33.882Z,45.40
2022-12-18T12:18:42.782Z,45.21
2022-12-18T12:20:51.395Z,44.98
2022-12-18T12:22:57.368Z,45.21
2022-12-18T12:25:05.343Z,45.15
2022-12-18T12:27:17.487Z,45.05
2022-12-18T12:29:27.859Z,44.97
2022-12-18T12:31:41.041Z,45.14
2022-12-18T12:33:49.125Z,45.11
2022-12-18T12:35:54.724Z,44.85
2022-12-18T12:38:02.675Z,45.30
2022-12-18T12:40:26.919Z,45.03
2022-12-18T12:43:05.369Z,45.18
2022-12-18T12:45:16.657Z,44.89
2022-12-18T12:47:22.378Z,44.92
2022-12-18T12:49:27.652Z,44.75
2022-12-18T12:51:32.056Z,45.04
2022-12-18T12:53:37.620Z,44.87
2022-12-18T12:55:41.769Z,44.94
2022-12-18T12:57:49.268Z,45.04
2022-12-18T12:59:56.986Z,44.64
2022-12-18T13:02:01.947Z,45.00
2022-12-18T13:04:10.830Z,44.65
2022-12-18T13:06:18.513Z,44.94
2022-12-18T13:08:25.504Z,44.91
2022-12-18T13:10:33.414Z,45.18
2022-12-18T13:12:53.696Z,44.99
2022-12-18T13:15:13.407Z,45.13
2022-12-18T13:17:16.525Z,45.24
2022-12-18T13:19:23.836Z,45.09
2022-12-18T13:21:28.093Z,45.46
2022-12-18T13:23:32.724Z,45.24
2022-12-18T13:25:36.244Z,45.50
2022-12-18T13:27:53.216Z,45.42
2022-12-18T13:29:58.846Z,45.18
2022-12-18T13:32:02.010Z,45.39
2022-12-18T13:34:31.444Z,45.34
2022-12-18T13:36:34.558Z,45.29
2022-12-18T13:38:38.616Z,45.61
2022-12-18T13:40:58.642Z,45.50
2022-12-18T13:43:16.629Z,45.41
2022-12-18T13:45:44.753Z,45.58
2022-12-18T13:47:49.842Z,45.65
2022-12-18T13:49:52.730Z,45.52
2022-12-18T13:51:56.528Z,45.65
2022-12-18T13:54:00.171Z,45.62
2022-12-18T13:56:03.772Z,45.48
2022-12-18T13:58:06.504Z,45.88
2022-12-18T14:00:25.453Z,45.81
2022-12-18T14:02:29.933Z,45.75
2022-12-18T14:04:34.387Z,45.50
2022-12-18T14:06:36.898Z,45.62
2022-12-18T14:08:41.346Z,45.59
2022-12-18T14:10:49.038Z,45.72
2022-12-18T14:13:00.355Z,45.73
2022-12-18T14:15:05.183Z,45.67
2022-12-18T14:17:10.550Z,46.10
2022-12-18T14:19:16.373Z,45.98
2022-12-18T14:21:23.531Z,45.89
2022-12-18T14:23:30.822Z,45.81
2022-12-18T14:25:33.224Z,45.86
2022-12-18T14:27:39.239Z,46.14
2022-12-18T14:29:44.957Z,45.84
2022-12-18T14:31:47.323Z,46.10
2022-12-18T14:33:50.370Z,46.04
2022-12-18T14:35:58.729Z,46.13
2022-12-18T14:38:21.350Z,46.15
2022-12-18T14:40:23.788Z,46.30
2022-12-18T14:42:28.899Z,46.17
2022-12-18T14:44:44.307Z,46.68
2022-12-18T14:46:53.833Z,46.66
2022-12-18T14:48:57.418Z,46.59
2022-12-18T14:51:03.270Z,46.57
2022-12-18T14:53:05.719Z,46.64
2022-12-18T14:55:16.057Z,46.65
2022-12-18T14:57:23.145Z,46.63
2022-12-18T14:59:26.663Z,46.69
2022-12-18T15:01:30.748Z,46.92
2022-12-18T15:03:33.414Z,46.93
2022-12-18T15:05:36.655Z,46.57
2022-12-18T15:07:43.598Z,46.69
2022-12-18T15:10:01.877Z,46.47
2022-12-18T15:12:04.578Z,46.67
2022-12-18T15:14:26.410Z,46.83
2022-12-18T15:16:28.987Z,46.82
2022-12-18T15:18:34.024Z,46.72
2022-12-18T15:20:41.727Z,46.68
2022-12-18T15:22:49.121Z,46.95
2022-12-18T15:24:51.852Z,46.71
2022-12-18T15:26:54.896Z,46.60
2022-12-18T15:28:59.315Z,47.05
2022-12-18T15:31:03.385Z,47.01
2022-12-18T15:33:23.922Z,47.04
2022-12-18T15:35:27.144Z,46.88
2022-12-18T15:37:29.501Z,46.81
2022-12-18T15:39:33.201Z,46.86
2022-12-18T15:41:36.512Z,47.08
2022-12-18T15:43:39.007Z,47.24
2022-12-18T15:45:41.774Z,47.26
2022-12-18T15:47:44.349Z,47.28
2022-12-18T15:49:46.799Z,46.93
2022-12-18T15:51:51.477Z,47.23
2022-12-18T15:53:56.466Z,47.34
2022-12-18T15:56:18.030Z,47.30
2022-12-18T15:58:21.650Z,47.41
2022-12-18T16:00:24.341Z,47.05
2022-12-18T16:02:27.014Z,47.18
2022-12-18T16:04:29.529Z,47.15
2022-12-18T16:06:51.049Z,46.87
2022-12-18T16:08:54.271Z,46.90
2022-12-18T16:10:56.952Z,47.18
2022-12-18T16:13:00.696Z,46.88
2022-12-18T16:15:03.151Z,47.17
2022-12-18T16:17:07.956Z,46.71
2022-12-18T16:19:10.338Z,47.18
2022-12-18T16:21:12.964Z,46.97
2022-12-18T16:23:15.321Z,46.84
2022-12-18T16:25:20.160Z,46.70
2022-12-18T16:27:23.195Z,47.04
2022-12-18T16:29:28.255Z,46.81
2022-12-18T16:31:30.763Z,46.97
2022-12-18T16:33:33.113Z,46.81
2022-12-18T16:35:37.961Z,46.67
2022-12-18T16:37:40.432Z,46.97
2022-12-18T16:39:43.192Z,46.95
2022-12-18T16:41:45.606Z,46.71
2022-12-18T16:43:54.469Z,46.99
2022-12-18T16:46:00.264Z,46.95
2022-12-18T16:48:02.679Z,46.98
2022-12-18T16:50:05.370Z,46.95
2022-12-18T16:52:08.130Z,46.91
2022-12-18T16:54:14.671Z,47.01
2022-12-18T16:56:19.866Z,46.80
2022-12-18T16:58:22.322Z,47.00
2022-12-18T17:00:24.676Z,46.76
2022-12-18T17:02:28.953Z,46.79
2022-12-18T17:04:31.703Z,46.95
2022-12-18T17:06:35.181Z,46.73
2022-12-18T17:08:37.604Z,46.98
2022-12-18T17:10:40.022Z,46.81
2022-12-18T17:12:42.852Z,46.69
2022-12-18T17:14:46.199Z,46.67
2022-12-18T17:17:07.216Z,46.96
2022-12-18T17:19:16.871Z,46.71
2022-12-18T17:21:19.982Z,46.88
2022-12-18T17:23:22.322Z,46.70
2022-12-18T17:25:24.646Z,46.66
2022-12-18T17:27:28.257Z,46.97
2022-12-18T17:29:30.806Z,47.04
2022-12-18T17:31:33.567Z,46.92
2022-12-18T17:33:36.105Z,46.93
2022-12-18T17:35:39.829Z,47.03
2022-12-18T17:37:42.182Z,46.70
2022-12-18T17:39:44.603Z,46.79
2022-12-18T17:41:47.288Z,46.77
2022-12-18T17:43:51.878Z,46.76
2022-12-18T17:45:54.388Z,46.79
2022-12-18T17:47:59.968Z,46.44
2022-12-18T17:50:02.503Z,46.61
2022-12-18T17:52:06.224Z,46.59
2022-12-18T17:54:08.676Z,46.59
2022-12-18T17:56:13.013Z,46.54
2022-12-18T17:58:15.592Z,46.53
2022-12-18T18:00:18.674Z,46.43
2022-12-18T18:02:21.162Z,46.41
2022-12-18T18:04:23.706Z,46.35
2022-12-18T18:06:26.166Z,46.16
2022-12-18T18:08:29.922Z,46.10
2022-12-18T18:10:33.156Z,46.22
2022-12-18T18:12:55.175Z,46.33
2022-12-18T18:14:57.529Z,46.12
2022-12-18T18:17:04.205Z,46.30
2022-12-18T18:19:08.129Z,46.32
2022-12-18T18:21:10.519Z,46.33
2022-12-18T18:23:13.030Z,46.32
2022-12-18T18:25:17.130Z,46.30
2022-12-18T18:27:20.486Z,46.35
2022-12-18T18:29:24.037Z,46.44
2022-12-18T18:31:29.570Z,46.32
2022-12-18T18:33:32.033Z,46.35
2022-12-18T18:37:54.564Z,46.22
2022-12-18T18:39:57.247Z,46.42
2022-12-18T18:42:00.974Z,46.41
2022-12-18T18:44:03.717Z,46.18
2022-12-18T18:46:06.414Z,46.53
2022-12-18T18:48:08.853Z,46.51
2022-12-18T18:50:12.887Z,46.36
2022-12-18T18:52:15.325Z,46.48
2022-12-18T18:54:17.678Z,46.53
2022-12-18T18:58:44.674Z,46.19
2022-12-18T19:00:54.842Z,46.29
2022-12-18T19:03:00.662Z,46.24
2022-12-18T19:05:03.437Z,46.36
2022-12-18T19:07:07.864Z,46.32
2022-12-18T19:09:10.733Z,46.05
2022-12-18T19:11:31.752Z,46.27
2022-12-18T19:13:36.965Z,46.03
2022-12-18T19:15:40.829Z,46.24
2022-12-18T19:17:44.767Z,46.21
2022-12-18T19:19:51.852Z,45.94
2022-12-18T19:21:54.235Z,45.97
2022-12-18T19:23:56.580Z,46.16
2022-12-18T19:26:17.054Z,46.17
2022-12-18T19:28:25.885Z,46.18
2022-12-18T19:30:28.231Z,45.95
2022-12-18T19:32:32.447Z,46.13
2022-12-18T19:34:34.833Z,45.96
2022-12-18T19:36:38.123Z,46.17
2022-12-18T19:38:41.233Z,46.15
2022-12-18T19:40:47.749Z,45.74
2022-12-18T19:42:50.108Z,45.83
2022-12-18T19:44:52.453Z,46.07
2022-12-18T19:46:54.804Z,46.06
2022-12-18T19:48:59.718Z,46.03
2022-12-18T19:51:05.540Z,46.14
2022-12-18T19:53:09.212Z,46.10
2022-12-18T19:55:13.022Z,46.13
2022-12-18T19:57:15.385Z,45.95
2022-12-18T19:59:17.727Z,46.21
2022-12-18T20:01:20.842Z,45.95
2022-12-18T20:03:28.894Z,46.15
2022-12-18T20:05:36.152Z,46.06
2022-12-18T20:07:38.993Z,45.99
2022-12-18T20:09:43.271Z,45.92
2022-12-18T20:11:46.266Z,46.18
2022-12-18T20:13:48.691Z,45.95
2022-12-18T20:15:51.049Z,46.22
2022-12-18T20:17:53.486Z,46.24
2022-12-18T20:19:56.065Z,46.12
2022-12-18T20:21:59.888Z,46.10
2022-12-18T20:24:02.270Z,46.09
2022-12-18T20:26:04.685Z,46.04
2022-12-18T20:28:10.099Z,46.02
2022-12-18T20:30:12.968Z,46.06
2022-12-18T20:32:15.413Z,45.68
2022-12-18T20:34:17.969Z,45.98
2022-12-18T20:36:22.577Z,45.85
2022-12-18T20:38:27.387Z,46.01
2022-12-18T20:40:30.704Z,45.72
2022-12-18T20:42:33.165Z,45.78
2022-12-18T20:44:35.655Z,45.79
2022-12-18T20:46:38.194Z,45.75
2022-12-18T20:48:40.810Z,45.81
2022-12-18T20:50:44.028Z,45.76
2022-12-18T20:52:46.424Z,45.76
2022-12-18T20:54:50.169Z,45.68
2022-12-18T20:56:52.896Z,45.92
2022-12-18T20:58:57.541Z,45.87
2022-12-18T21:01:03.504Z,45.82
2022-12-18T21:03:05.999Z,45.90
2022-12-18T21:05:08.976Z,45.68
2022-12-18T21:07:11.369Z,45.85
2022-12-18T21:09:13.782Z,45.67
2022-12-18T21:11:43.331Z,45.89
2022-12-18T21:13:45.753Z,45.88
2022-12-18T21:15:48.356Z,45.62
2022-12-18T21:17:50.729Z,45.95
2022-12-18T21:19:53.194Z,45.87
2022-12-18T21:21:57.072Z,46.12
2022-12-18T21:23:59.769Z,45.97
2022-12-18T21:26:16.862Z,45.92
2022-12-18T21:28:19.351Z,45.65
2022-12-18T21:30:21.822Z,45.69
2022-12-18T21:32:24.781Z,45.79
2022-12-18T21:34:31.449Z,45.94
2022-12-18T21:36:34.307Z,45.92
2022-12-18T21:38:36.976Z,45.74
2022-12-18T21:40:39.877Z,45.87
2022-12-18T21:43:00.939Z,45.59
2022-12-18T21:45:03.333Z,45.82
2022-12-18T21:47:15.151Z,45.79
2022-12-18T21:49:25.222Z,45.82
2022-12-18T21:51:27.609Z,45.46
2022-12-18T21:53:30.283Z,45.74
2022-12-18T21:55:32.610Z,45.71
2022-12-18T21:57:34.988Z,45.70
2022-12-18T21:59:40.036Z,45.49
2022-12-18T22:01:42.690Z,45.96
2022-12-18T22:03:45.362Z,46.09
2022-12-18T22:05:51.997Z,46.07
2022-12-18T22:08:10.448Z,46.63
2022-12-18T22:10:12.968Z,46.92
2022-12-18T22:12:35.021Z,46.82
2022-12-18T22:14:38.833Z,46.98
2022-12-18T22:16:41.642Z,47.36
2022-12-18T22:18:44.761Z,47.27
2022-12-18T22:20:47.109Z,47.17
2022-12-18T22:22:51.640Z,47.43
2022-12-18T22:24:53.987Z,47.43
2022-12-18T22:27:02.478Z,47.55
2022-12-18T22:29:37.716Z,47.93
2022-12-18T22:31:41.881Z,47.75
2022-12-18T22:33:44.240Z,47.89
2022-12-18T22:35:48.495Z,48.12
2022-12-18T22:37:50.933Z,48.03
2022-12-18T22:39:53.313Z,47.83
2022-12-18T22:41:55.829Z,48.16
2022-12-18T22:43:58.208Z,47.92
2022-12-18T22:46:00.674Z,48.23
2022-12-18T22:48:04.882Z,48.30
2022-12-18T22:50:07.806Z,48.10
2022-12-18T22:52:10.689Z,48.32
2022-12-18T22:54:13.095Z,48.17
2022-12-18T22:56:21.194Z,48.28
2022-12-18T22:58:23.682Z,48.28
2022-12-18T23:00:26.087Z,48.18
2022-12-18T23:02:28.680Z,48.18
2022-12-18T23:04:36.604Z,48.24
2022-12-18T23:06:39.690Z,47.95
2022-12-18T23:08:42.228Z,47.95
2022-12-18T23:10:44.585Z,48.25
2022-12-18T23:12:46.945Z,47.93
2022-12-18T23:14:49.399Z,48.17
2022-12-18T23:16:52.277Z,47.89
2022-12-18T23:18:56.435Z,47.98
2022-12-18T23:21:03.655Z,47.76
2022-12-18T23:23:06.631Z,47.77
2022-12-18T23:25:10.961Z,48.03
2022-12-18T23:27:13.296Z,47.98
2022-12-18T23:29:15.694Z,47.73
